createdAt,value
2017-12-28T00:00:31.433Z,12.70
2017-12-28T00:01:31.461Z,13.20
2017-12-28T00:02:31.494Z,11.60
2017-12-28T00:03:31.524Z,12.30
2017-12-28T00:04:31.566Z,13.80
2017-12-28T00:05:31.587Z,13.00
2017-12-28T00:06:31.754Z,13.10
2017-12-28T00:07:31.663Z,13.10
2017-12-28T00:08:31.684Z,13.00
2017-12-28T00:09:31.715Z,13.90
2017-12-28T00:10:31.749Z,11.40
2017-12-28T00:11:31.782Z,14.00
2017-12-28T00:12:31.812Z,13.20
2017-12-28T00:13:31.909Z,12.70
2017-12-28T00:14:31.876Z,14.10
2017-12-28T00:15:31.909Z,12.50
2017-12-28T00:16:31.944Z,13.70
2017-12-28T00:17:31.973Z,13.70
2017-12-28T00:18:32.005Z,14.20
2017-12-28T00:19:32.037Z,11.10
2017-12-28T00:20:32.071Z,13.30
2017-12-28T00:21:32.106Z,12.50
2017-12-28T00:22:32.134Z,12.20
2017-12-28T00:23:32.164Z,13.70
2017-12-28T00:24:32.197Z,11.80
2017-12-28T00:25:32.233Z,11.50
2017-12-28T00:26:32.264Z,13.60
2017-12-28T00:27:32.306Z,10.70
2017-12-28T00:28:32.324Z,11.70
2017-12-28T00:29:32.357Z,10.10
2017-12-28T00:30:32.396Z,12.40
2017-12-28T00:31:32.420Z,10.90
2017-12-28T00:32:32.455Z,12.60
2017-12-28T00:33:32.485Z,11.40
2017-12-28T00:34:32.516Z,12.20
2017-12-28T00:35:32.549Z,12.60
2017-12-28T00:36:32.581Z,12.70
2017-12-28T00:37:32.951Z,13.10
2017-12-28T00:38:32.645Z,11.70
2017-12-28T00:39:32.678Z,11.60
2017-12-28T00:40:32.720Z,13.30
2017-12-28T00:41:32.741Z,13.40
2017-12-28T00:42:32.776Z,12.80
2017-12-28T00:43:32.821Z,12.70
2017-12-28T00:44:32.839Z,12.30
2017-12-28T00:45:32.869Z,11.70
2017-12-28T00:46:32.901Z,11.50
2017-12-28T00:47:32.936Z,13.00
2017-12-28T00:48:32.966Z,12.60
2017-12-28T00:49:32.998Z,11.90
2017-12-28T00:50:33.032Z,13.30
2017-12-28T00:51:33.063Z,11.30
2017-12-28T00:52:33.097Z,10.60
2017-12-28T00:53:33.126Z,12.60
2017-12-28T00:54:33.158Z,12.40
2017-12-28T00:55:33.189Z,12.00
2017-12-28T00:56:33.312Z,11.20
2017-12-28T00:57:33.257Z,11.80
2017-12-28T00:58:33.292Z,12.80
2017-12-28T00:59:33.325Z,13.20
2017-12-28T01:00:33.352Z,12.90
2017-12-28T01:01:33.383Z,11.40
2017-12-28T01:02:33.418Z,12.40
2017-12-28T01:03:33.449Z,12.70
2017-12-28T01:04:33.477Z,13.00
2017-12-28T01:05:33.511Z,14.00
2017-12-28T01:06:33.544Z,15.10
2017-12-28T01:07:33.579Z,13.50
2017-12-28T01:08:33.609Z,14.10
2017-12-28T01:09:33.639Z,13.00
2017-12-28T01:10:33.671Z,14.20
2017-12-28T01:11:33.709Z,13.60
2017-12-28T01:12:33.739Z,15.30
2017-12-28T01:13:33.820Z,15.30
2017-12-28T01:14:33.800Z,15.80
2017-12-28T01:15:33.835Z,13.10
2017-12-28T01:16:33.886Z,15.30
2017-12-28T01:17:33.912Z,15.10
2017-12-28T01:18:34.258Z,13.20
2017-12-28T01:19:33.964Z,14.50
2017-12-28T01:20:34.099Z,15.60
2017-12-28T01:21:34.025Z,14.80
2017-12-28T01:22:34.056Z,15.10
2017-12-28T01:23:34.095Z,15.50
2017-12-28T01:24:34.123Z,15.70
2017-12-28T01:25:34.152Z,14.30
2017-12-28T01:26:34.187Z,15.80
2017-12-28T01:27:34.221Z,17.50
2017-12-28T01:28:34.250Z,15.20
2017-12-28T01:29:34.283Z,15.20
2017-12-28T01:30:34.316Z,15.90
2017-12-28T01:31:34.347Z,14.40
2017-12-28T01:32:34.382Z,14.60
2017-12-28T01:33:34.412Z,15.90
2017-12-28T01:34:34.441Z,14.10
2017-12-28T01:35:34.474Z,16.00
2017-12-28T01:36:34.818Z,15.60
2017-12-28T01:37:34.538Z,18.70
2017-12-28T01:38:34.573Z,16.20
2017-12-28T01:39:34.602Z,13.80
2017-12-28T01:40:34.635Z,15.10
2017-12-28T01:41:34.665Z,15.00
2017-12-28T01:42:34.697Z,15.90
2017-12-28T01:43:34.733Z,16.00
2017-12-28T01:44:34.763Z,15.10
2017-12-28T01:45:34.793Z,14.40
2017-12-28T01:46:34.826Z,14.00
2017-12-28T01:47:34.859Z,15.20
2017-12-28T01:48:34.888Z,15.70
2017-12-28T01:49:34.923Z,16.20
2017-12-28T01:50:34.953Z,15.70
2017-12-28T01:51:34.992Z,16.10
2017-12-28T01:52:35.016Z,14.50
2017-12-28T01:53:35.049Z,14.50
2017-12-28T01:54:35.084Z,16.60
2017-12-28T01:55:35.111Z,13.40
2017-12-28T01:56:35.144Z,14.10
2017-12-28T01:57:35.189Z,14.70
2017-12-28T01:58:35.207Z,18.20
2017-12-28T01:59:35.240Z,13.90
2017-12-28T02:00:35.273Z,13.60
2017-12-28T02:01:35.306Z,14.00
2017-12-28T02:02:35.337Z,14.40
2017-12-28T02:03:35.369Z,13.90
2017-12-28T02:04:35.400Z,14.90
2017-12-28T02:05:35.435Z,13.50
2017-12-28T02:06:35.465Z,14.30
2017-12-28T02:07:35.495Z,17.10
2017-12-28T02:08:35.528Z,13.70
2017-12-28T02:09:35.561Z,13.60
2017-12-28T02:10:35.652Z,14.60
2017-12-28T02:11:35.629Z,14.60
2017-12-28T02:12:35.656Z,14.20
2017-12-28T02:13:35.688Z,15.00
2017-12-28T02:14:35.720Z,14.10
2017-12-28T02:15:35.750Z,15.10
2017-12-28T02:16:35.787Z,15.90
2017-12-28T02:17:36.171Z,14.20
2017-12-28T02:18:35.850Z,15.20
2017-12-28T02:19:35.880Z,15.80
2017-12-28T02:20:35.912Z,15.30
2017-12-28T02:21:35.947Z,15.60
2017-12-28T02:22:35.978Z,14.50
2017-12-28T02:23:36.008Z,15.00
2017-12-28T02:24:36.040Z,14.80
2017-12-28T02:25:36.071Z,14.90
2017-12-28T02:26:36.107Z,14.70
2017-12-28T02:27:36.190Z,15.40
2017-12-28T02:28:36.168Z,14.60
2017-12-28T02:29:36.200Z,14.20
2017-12-28T02:30:36.231Z,16.40
2017-12-28T02:31:36.262Z,16.60
2017-12-28T02:32:36.298Z,14.50
2017-12-28T02:33:36.327Z,13.10
2017-12-28T02:34:36.413Z,14.30
2017-12-28T02:35:36.392Z,13.40
2017-12-28T02:36:36.422Z,13.30
2017-12-28T02:37:36.453Z,15.40
2017-12-28T02:38:36.485Z,14.20
2017-12-28T02:39:36.536Z,15.30
2017-12-28T02:40:36.558Z,15.20
2017-12-28T02:41:36.582Z,14.50
2017-12-28T02:42:36.615Z,12.70
2017-12-28T02:43:36.651Z,13.70
2017-12-28T02:44:36.679Z,13.80
2017-12-28T02:45:36.712Z,13.10
2017-12-28T02:46:36.746Z,11.90
2017-12-28T02:47:36.776Z,15.10
2017-12-28T02:48:36.810Z,14.20
2017-12-28T02:49:36.841Z,13.20
2017-12-28T02:50:36.871Z,13.00
2017-12-28T02:51:36.903Z,14.30
2017-12-28T02:52:36.937Z,12.30
2017-12-28T02:53:37.014Z,11.70
2017-12-28T02:54:37.004Z,12.90
2017-12-28T02:55:37.032Z,14.30
2017-12-28T02:56:37.076Z,12.90
2017-12-28T02:57:37.095Z,14.40
2017-12-28T02:58:37.142Z,13.30
2017-12-28T02:59:37.161Z,13.70
2017-12-28T03:00:37.277Z,12.90
2017-12-28T03:01:37.223Z,13.40
2017-12-28T03:02:37.256Z,14.30
2017-12-28T03:03:37.287Z,13.70
2017-12-28T03:04:37.332Z,13.80
2017-12-28T03:05:37.352Z,12.30
2017-12-28T03:06:37.384Z,14.30
2017-12-28T03:07:37.438Z,13.40
2017-12-28T03:08:37.447Z,13.50
2017-12-28T03:09:37.482Z,14.60
2017-12-28T03:10:37.513Z,14.50
2017-12-28T03:11:37.558Z,15.10
2017-12-28T03:12:37.576Z,12.30
2017-12-28T03:13:37.608Z,14.40
2017-12-28T03:14:37.644Z,15.00
2017-12-28T03:15:37.676Z,14.20
2017-12-28T03:16:37.707Z,13.10
2017-12-28T03:17:37.843Z,13.50
2017-12-28T03:18:37.773Z,13.10
2017-12-28T03:19:37.803Z,14.50
2017-12-28T03:20:37.836Z,15.00
2017-12-28T03:21:37.866Z,12.90
2017-12-28T03:22:37.899Z,14.90
2017-12-28T03:23:37.932Z,13.40
2017-12-28T03:24:37.975Z,13.60
2017-12-28T03:25:37.995Z,14.00
2017-12-28T03:26:38.030Z,14.50
2017-12-28T03:27:38.064Z,14.90
2017-12-28T03:28:38.096Z,10.50
2017-12-28T03:29:38.124Z,14.00
2017-12-28T03:30:38.160Z,12.10
2017-12-28T03:31:38.191Z,10.80
2017-12-28T03:32:38.224Z,10.50
2017-12-28T03:33:38.267Z,11.40
2017-12-28T03:34:38.288Z,11.60
2017-12-28T03:35:38.320Z,11.10
2017-12-28T03:36:38.358Z,14.10
2017-12-28T03:37:38.384Z,12.90
2017-12-28T03:38:38.415Z,11.70
2017-12-28T03:39:38.448Z,12.30
2017-12-28T03:40:38.482Z,14.20
2017-12-28T03:41:38.518Z,13.30
2017-12-28T03:42:38.546Z,15.40
2017-12-28T03:43:38.644Z,13.50
2017-12-28T03:44:38.608Z,11.90
2017-12-28T03:45:38.640Z,15.20
2017-12-28T03:46:38.676Z,12.90
2017-12-28T03:47:38.706Z,13.80
2017-12-28T03:48:38.738Z,14.40
2017-12-28T03:49:38.769Z,12.50
2017-12-28T03:50:38.869Z,10.60
2017-12-28T03:51:38.836Z,10.40
2017-12-28T03:52:38.866Z,12.20
2017-12-28T03:53:38.896Z,13.30
2017-12-28T03:54:38.931Z,11.30
2017-12-28T03:55:38.959Z,10.00
2017-12-28T03:56:38.992Z,6.90
2017-12-28T03:57:39.022Z,7.20
2017-12-28T03:58:39.058Z,9.20
2017-12-28T03:59:39.088Z,8.50
2017-12-28T04:00:39.128Z,7.00
2017-12-28T04:01:39.150Z,7.40
2017-12-28T04:02:39.179Z,8.80
2017-12-28T04:03:39.213Z,8.50
2017-12-28T04:04:39.248Z,6.70
2017-12-28T04:05:39.278Z,8.00
2017-12-28T04:06:39.307Z,8.40
2017-12-28T04:07:39.660Z,6.90
2017-12-28T04:08:39.368Z,7.10
2017-12-28T04:09:39.400Z,6.40
2017-12-28T04:10:39.436Z,6.90
2017-12-28T04:11:39.464Z,6.50
2017-12-28T04:12:39.493Z,5.90
2017-12-28T04:13:39.530Z,6.10
2017-12-28T04:14:39.560Z,5.90
2017-12-28T04:15:39.589Z,5.70
2017-12-28T04:16:39.619Z,5.30
2017-12-28T04:17:39.649Z,4.90
2017-12-28T04:18:39.694Z,5.30
2017-12-28T04:19:39.711Z,3.70
2017-12-28T04:20:39.742Z,5.10
2017-12-28T04:21:39.769Z,4.60
2017-12-28T04:22:39.802Z,5.30
2017-12-28T04:23:39.834Z,5.60
2017-12-28T04:24:39.869Z,5.10
2017-12-28T04:25:39.899Z,5.50
2017-12-28T04:26:39.925Z,5.30
2017-12-28T04:27:39.960Z,6.20
2017-12-28T04:28:40.039Z,5.30
2017-12-28T04:29:40.021Z,6.20
2017-12-28T04:30:40.050Z,6.20
2017-12-28T04:31:40.083Z,5.10
2017-12-28T04:32:40.110Z,5.60
2017-12-28T04:33:40.140Z,4.90
2017-12-28T04:34:40.174Z,4.40
2017-12-28T04:35:40.202Z,4.10
2017-12-28T04:36:40.236Z,4.70
2017-12-28T04:37:40.267Z,5.00
2017-12-28T04:38:40.300Z,4.80
2017-12-28T04:39:40.326Z,5.80
2017-12-28T04:40:40.361Z,6.40
2017-12-28T04:41:40.388Z,4.60
2017-12-28T04:42:40.420Z,4.40
2017-12-28T04:43:40.474Z,4.20
2017-12-28T04:44:40.482Z,5.80
2017-12-28T04:45:40.512Z,4.90
2017-12-28T04:46:40.543Z,5.30
2017-12-28T04:47:40.575Z,3.70
2017-12-28T04:48:40.605Z,5.60
2017-12-28T04:49:40.636Z,4.20
2017-12-28T04:50:40.681Z,3.70
2017-12-28T04:51:40.697Z,3.40
2017-12-28T04:52:40.726Z,3.90
2017-12-28T04:53:40.766Z,3.90
2017-12-28T04:54:40.791Z,4.50
2017-12-28T04:55:40.822Z,3.40
2017-12-28T04:56:40.853Z,3.70
2017-12-28T04:57:40.896Z,4.30
2017-12-28T04:58:40.912Z,3.60
2017-12-28T04:59:40.945Z,3.60
2017-12-28T05:00:40.975Z,4.40
2017-12-28T05:01:41.006Z,4.30
2017-12-28T05:02:41.036Z,3.80
2017-12-28T05:03:41.065Z,3.40
2017-12-28T05:04:41.098Z,3.80
2017-12-28T05:05:41.129Z,4.00
2017-12-28T05:06:41.159Z,3.70
2017-12-28T05:07:41.194Z,4.10
2017-12-28T05:08:41.223Z,4.20
2017-12-28T05:09:41.253Z,3.90
2017-12-28T05:10:41.284Z,4.20
2017-12-28T05:11:41.314Z,3.50
2017-12-28T05:12:41.344Z,3.20
2017-12-28T05:13:41.376Z,3.50
2017-12-28T05:14:41.517Z,3.60
2017-12-28T05:15:41.437Z,3.70
2017-12-28T05:16:41.468Z,3.70
2017-12-28T05:17:41.497Z,5.20
2017-12-28T05:18:41.531Z,3.90
2017-12-28T05:19:41.561Z,3.90
2017-12-28T05:20:41.591Z,5.10
2017-12-28T05:21:41.626Z,3.50
2017-12-28T05:22:41.653Z,3.00
2017-12-28T05:23:41.685Z,2.90
2017-12-28T05:24:41.717Z,3.90
2017-12-28T05:25:41.746Z,3.80
2017-12-28T05:26:41.820Z,3.90
2017-12-28T05:27:41.807Z,4.70
2017-12-28T05:28:41.842Z,4.10
2017-12-28T05:29:41.871Z,2.80
2017-12-28T05:30:41.904Z,4.80
2017-12-28T05:31:41.932Z,4.30
2017-12-28T05:32:41.963Z,3.30
2017-12-28T05:33:42.132Z,3.40
2017-12-28T05:34:42.027Z,3.60
2017-12-28T05:35:42.055Z,4.60
2017-12-28T05:36:42.089Z,3.60
2017-12-28T05:37:42.117Z,3.10
2017-12-28T05:38:42.147Z,4.70
2017-12-28T05:39:42.179Z,4.70
2017-12-28T05:40:42.209Z,3.70
2017-12-28T05:41:42.240Z,4.70
2017-12-28T05:42:42.272Z,4.60
2017-12-28T05:43:42.302Z,2.40
2017-12-28T05:44:42.338Z,4.50
2017-12-28T05:45:42.363Z,3.40
2017-12-28T05:46:42.399Z,3.90
2017-12-28T05:47:42.428Z,5.00
2017-12-28T05:48:42.459Z,4.90
2017-12-28T05:49:42.491Z,4.80
2017-12-28T05:50:42.863Z,4.20
2017-12-28T05:51:42.550Z,3.20
2017-12-28T05:52:42.580Z,3.80
2017-12-28T05:53:42.612Z,4.90
2017-12-28T05:54:42.641Z,4.40
2017-12-28T05:55:42.675Z,5.20
2017-12-28T05:56:42.704Z,5.30
2017-12-28T05:57:42.829Z,6.70
2017-12-28T05:58:42.771Z,6.60
2017-12-28T05:59:42.801Z,4.80
2017-12-28T06:00:42.829Z,5.70
2017-12-28T06:01:42.861Z,5.30
2017-12-28T06:02:42.890Z,5.00
2017-12-28T06:03:42.922Z,5.50
2017-12-28T06:04:42.953Z,6.10
2017-12-28T06:05:42.983Z,8.70
2017-12-28T06:06:43.013Z,4.70
2017-12-28T06:07:43.046Z,5.80
2017-12-28T06:08:43.076Z,7.80
2017-12-28T06:09:43.107Z,7.60
2017-12-28T06:10:43.140Z,6.20
2017-12-28T06:11:43.179Z,6.50
2017-12-28T06:12:43.200Z,5.60
2017-12-28T06:13:43.236Z,5.80
2017-12-28T06:14:43.262Z,6.60
2017-12-28T06:15:43.296Z,9.20
2017-12-28T06:16:43.324Z,5.20
2017-12-28T06:17:43.353Z,5.10
2017-12-28T06:18:43.387Z,6.10
2017-12-28T06:19:43.427Z,5.80
2017-12-28T06:20:43.446Z,5.90
2017-12-28T06:21:43.477Z,6.50
2017-12-28T06:22:43.511Z,4.80
2017-12-28T06:23:43.541Z,5.90
2017-12-28T06:24:43.571Z,6.80
2017-12-28T06:25:43.605Z,6.50
2017-12-28T06:26:43.656Z,6.70
2017-12-28T06:27:43.666Z,7.30
2017-12-28T06:28:43.695Z,6.10
2017-12-28T06:29:43.726Z,4.20
2017-12-28T06:30:43.766Z,7.50
2017-12-28T06:31:43.787Z,7.30
2017-12-28T06:32:43.818Z,7.70
2017-12-28T06:33:43.893Z,6.40
2017-12-28T06:34:43.882Z,5.70
2017-12-28T06:35:43.913Z,5.90
2017-12-28T06:36:43.944Z,7.70
2017-12-28T06:37:43.974Z,8.00
2017-12-28T06:38:44.006Z,4.60
2017-12-28T06:39:44.036Z,6.70
2017-12-28T06:40:44.066Z,5.20
2017-12-28T06:41:44.099Z,6.90
2017-12-28T06:42:44.131Z,8.60
2017-12-28T06:43:44.165Z,8.80
2017-12-28T06:44:44.194Z,5.90
2017-12-28T06:45:44.223Z,9.90
2017-12-28T06:46:44.255Z,11.60
2017-12-28T06:47:44.284Z,8.40
2017-12-28T06:48:44.315Z,9.60
2017-12-28T06:49:44.345Z,14.10
2017-12-28T06:50:44.431Z,8.80
2017-12-28T06:51:44.409Z,7.40
2017-12-28T06:52:44.442Z,13.30
2017-12-28T06:53:44.470Z,6.70
2017-12-28T06:54:44.501Z,16.30
2017-12-28T06:55:44.536Z,9.10
2017-12-28T06:56:44.565Z,12.70
2017-12-28T06:57:44.936Z,10.40
2017-12-28T06:58:44.624Z,6.20
2017-12-28T06:59:44.659Z,6.40
2017-12-28T07:00:44.685Z,7.40
2017-12-28T07:01:44.715Z,6.10
2017-12-28T07:02:44.751Z,8.30
2017-12-28T07:03:44.778Z,6.50
2017-12-28T07:04:44.808Z,6.60
2017-12-28T07:05:44.838Z,7.30
2017-12-28T07:06:44.871Z,7.30
2017-12-28T07:07:44.907Z,7.50
2017-12-28T07:08:44.937Z,8.40
2017-12-28T07:09:45.032Z,8.60
2017-12-28T07:10:44.997Z,8.60
2017-12-28T07:11:45.028Z,6.20
2017-12-28T07:12:45.060Z,7.90
2017-12-28T07:13:45.092Z,8.90
2017-12-28T07:14:45.120Z,6.50
2017-12-28T07:15:45.153Z,7.50
2017-12-28T07:16:45.183Z,10.80
2017-12-28T07:17:45.214Z,9.30
2017-12-28T07:18:45.243Z,8.20
2017-12-28T07:19:45.290Z,7.80
2017-12-28T07:20:45.307Z,7.30
2017-12-28T07:21:45.339Z,8.60
2017-12-28T07:22:45.380Z,10.70
2017-12-28T07:23:45.407Z,8.30
2017-12-28T07:24:45.433Z,9.20
2017-12-28T07:25:45.461Z,7.20
2017-12-28T07:26:45.499Z,8.60
2017-12-28T07:27:45.523Z,6.80
2017-12-28T07:28:45.558Z,7.00
2017-12-28T07:29:45.585Z,10.20
2017-12-28T07:30:45.622Z,7.90
2017-12-28T07:31:45.644Z,8.00
2017-12-28T07:32:45.684Z,10.70
2017-12-28T07:33:46.028Z,10.30
2017-12-28T07:34:45.741Z,7.30
2017-12-28T07:35:45.770Z,7.60
2017-12-28T07:36:45.802Z,8.80
2017-12-28T07:37:45.839Z,6.00
2017-12-28T07:38:45.870Z,8.10
2017-12-28T07:39:45.892Z,6.70
2017-12-28T07:40:45.932Z,8.40
2017-12-28T07:41:45.954Z,9.50
2017-12-28T07:42:45.991Z,8.90
2017-12-28T07:43:46.020Z,8.80
2017-12-28T07:44:46.048Z,9.90
2017-12-28T07:45:46.084Z,8.10
2017-12-28T07:46:46.117Z,14.70
2017-12-28T07:47:46.150Z,14.10
2017-12-28T07:48:46.174Z,12.90
2017-12-28T07:49:46.213Z,14.80
2017-12-28T07:50:46.277Z,13.20
2017-12-28T07:51:46.266Z,11.90
2017-12-28T07:52:46.302Z,12.20
2017-12-28T07:53:46.328Z,10.30
2017-12-28T07:54:46.361Z,11.60
2017-12-28T07:55:46.395Z,9.00
2017-12-28T07:56:46.422Z,9.50
2017-12-28T07:57:46.451Z,13.10
2017-12-28T07:58:46.483Z,9.00
2017-12-28T07:59:46.518Z,6.90
2017-12-28T08:00:46.544Z,10.40
2017-12-28T08:01:46.586Z,12.40
2017-12-28T08:02:46.608Z,9.40
2017-12-28T08:03:46.644Z,8.60
2017-12-28T08:04:46.675Z,11.60
2017-12-28T08:05:46.771Z,7.90
2017-12-28T08:06:46.738Z,10.80
2017-12-28T08:07:46.764Z,10.70
2017-12-28T08:08:46.796Z,9.40
2017-12-28T08:09:46.871Z,10.60
2017-12-28T08:10:46.868Z,15.20
2017-12-28T08:11:46.895Z,16.70
2017-12-28T08:12:46.985Z,12.30
2017-12-28T08:13:46.959Z,14.30
2017-12-28T08:14:47.045Z,16.20
2017-12-28T08:15:47.082Z,13.30
2017-12-28T08:16:47.253Z,14.00
2017-12-28T08:17:47.079Z,13.50
2017-12-28T08:18:47.114Z,13.00
2017-12-28T08:19:47.144Z,14.60
2017-12-28T08:20:47.175Z,12.60
2017-12-28T08:21:47.203Z,11.70
2017-12-28T08:22:47.237Z,13.50
2017-12-28T08:23:47.275Z,11.10
2017-12-28T08:24:47.300Z,11.30
2017-12-28T08:25:47.334Z,10.50
2017-12-28T08:26:47.368Z,10.50
2017-12-28T08:27:47.396Z,11.40
2017-12-28T08:28:47.432Z,12.70
2017-12-28T08:29:47.467Z,14.60
2017-12-28T08:30:47.495Z,8.70
2017-12-28T08:31:47.538Z,13.50
2017-12-28T08:32:47.560Z,14.00
2017-12-28T08:33:47.658Z,13.50
2017-12-28T08:34:47.617Z,16.30
2017-12-28T08:35:47.647Z,11.30
2017-12-28T08:36:47.691Z,7.80
2017-12-28T08:37:47.741Z,15.70
2017-12-28T08:38:47.748Z,15.10
2017-12-28T08:39:47.775Z,12.50
2017-12-28T08:40:47.813Z,13.60
2017-12-28T08:41:47.854Z,12.20
2017-12-28T08:42:47.882Z,10.00
2017-12-28T08:43:47.907Z,9.10
2017-12-28T08:44:47.940Z,12.60
2017-12-28T08:45:48.031Z,8.40
2017-12-28T08:46:47.995Z,10.10
2017-12-28T08:47:48.039Z,7.00
2017-12-28T08:48:48.097Z,15.60
2017-12-28T08:49:48.099Z,14.60
2017-12-28T08:50:48.124Z,12.10
2017-12-28T08:51:48.153Z,13.00
2017-12-28T08:52:48.251Z,9.50
2017-12-28T08:53:48.215Z,13.30
2017-12-28T08:54:48.249Z,14.00
2017-12-28T08:55:48.292Z,11.20
2017-12-28T08:56:48.310Z,12.70
2017-12-28T08:57:48.343Z,14.40
2017-12-28T08:58:48.376Z,12.20
2017-12-28T08:59:48.410Z,14.00
2017-12-28T09:00:48.438Z,12.10
2017-12-28T09:01:48.468Z,15.00
2017-12-28T09:02:48.501Z,11.10
2017-12-28T09:03:48.531Z,10.50
2017-12-28T09:04:48.587Z,15.10
2017-12-28T09:05:48.595Z,14.40
2017-12-28T09:06:48.630Z,11.00
2017-12-28T09:07:48.660Z,12.20
2017-12-28T09:08:48.688Z,12.00
2017-12-28T09:09:48.744Z,9.70
2017-12-28T09:10:48.753Z,13.50
2017-12-28T09:11:48.795Z,11.40
2017-12-28T09:12:48.817Z,11.50
2017-12-28T09:13:48.851Z,10.90
2017-12-28T09:14:48.893Z,9.90
2017-12-28T09:15:48.935Z,11.10
2017-12-28T09:16:49.077Z,12.80
2017-12-28T09:17:48.972Z,14.30
2017-12-28T09:18:49.014Z,9.90
2017-12-28T09:19:49.044Z,9.20
2017-12-28T09:20:49.298Z,14.80
2017-12-28T09:21:49.103Z,11.70
2017-12-28T09:22:49.132Z,12.80
2017-12-28T09:23:49.277Z,10.30
2017-12-28T09:24:49.206Z,11.30
2017-12-28T09:25:49.225Z,10.50
2017-12-28T09:26:49.257Z,13.00
2017-12-28T09:27:49.360Z,13.60
2017-12-28T09:28:49.325Z,13.10
2017-12-28T09:29:49.553Z,14.60
2017-12-28T09:30:49.416Z,11.60
2017-12-28T09:31:49.420Z,11.80
2017-12-28T09:32:49.653Z,18.70
2017-12-28T09:33:49.567Z,16.60
2017-12-28T09:34:49.536Z,12.40
2017-12-28T09:35:49.746Z,12.90
2017-12-28T09:36:49.575Z,13.10
2017-12-28T09:37:49.610Z,11.50
2017-12-28T09:38:49.693Z,11.50
2017-12-28T09:39:49.872Z,9.90
2017-12-28T09:40:49.708Z,10.40
2017-12-28T09:41:49.745Z,16.20
2017-12-28T09:42:49.763Z,10.00
2017-12-28T09:43:49.796Z,10.20
2017-12-28T09:44:49.829Z,17.10
2017-12-28T09:45:49.900Z,11.30
2017-12-28T09:46:49.901Z,11.50
2017-12-28T09:48:50.011Z,13.10
2017-12-28T09:49:49.989Z,12.30
2017-12-28T09:50:50.223Z,12.80
2017-12-28T09:51:50.055Z,11.00
2017-12-28T09:52:50.189Z,10.30
2017-12-28T09:53:50.116Z,10.40
2017-12-28T09:54:50.147Z,10.60
2017-12-28T09:55:50.239Z,14.60
2017-12-28T09:56:50.216Z,12.40
2017-12-28T09:57:50.246Z,12.60
2017-12-28T09:58:50.332Z,15.00
2017-12-28T09:59:50.309Z,14.10
2017-12-28T10:00:50.341Z,10.20
2017-12-28T10:01:50.375Z,10.80
2017-12-28T10:02:50.611Z,9.60
2017-12-28T10:03:50.438Z,9.70
2017-12-28T10:04:50.473Z,12.80
2017-12-28T10:05:50.501Z,10.60
2017-12-28T10:06:50.538Z,12.50
2017-12-28T10:07:50.566Z,11.00
2017-12-28T10:08:50.596Z,15.40
2017-12-28T10:09:50.686Z,18.20
2017-12-28T10:10:50.661Z,12.20
2017-12-28T10:11:50.696Z,12.90
2017-12-28T10:12:50.725Z,13.60
2017-12-28T10:13:50.757Z,15.60
2017-12-28T10:14:50.790Z,12.80
2017-12-28T10:15:51.027Z,14.30
2017-12-28T10:16:50.925Z,14.10
2017-12-28T10:17:50.888Z,17.00
2017-12-28T10:18:50.917Z,14.70
2017-12-28T10:19:50.950Z,12.90
2017-12-28T10:20:50.981Z,15.60
2017-12-28T10:21:51.013Z,11.30
2017-12-28T10:22:51.063Z,9.90
2017-12-28T10:23:51.087Z,15.10
2017-12-28T10:24:51.106Z,17.00
2017-12-28T10:25:51.355Z,13.60
2017-12-28T10:26:51.184Z,14.00
2017-12-28T10:27:51.210Z,15.60
2017-12-28T10:28:51.329Z,13.90
2017-12-28T10:29:51.537Z,13.60
2017-12-28T10:30:51.307Z,14.20
2017-12-28T10:31:51.336Z,15.80
2017-12-28T10:32:51.370Z,15.60
2017-12-28T10:33:51.399Z,15.00
2017-12-28T10:34:51.429Z,15.70
2017-12-28T10:35:51.518Z,14.80
2017-12-28T10:36:51.493Z,16.50
2017-12-28T10:37:51.524Z,15.10
2017-12-28T10:38:51.960Z,13.00
2017-12-28T10:39:51.589Z,15.50
2017-12-28T10:40:51.702Z,12.10
2017-12-28T10:41:51.649Z,9.70
2017-12-28T10:42:51.685Z,13.40
2017-12-28T10:43:51.715Z,15.00
2017-12-28T10:44:51.757Z,12.30
2017-12-28T10:45:51.783Z,10.60
2017-12-28T10:46:51.810Z,16.50
2017-12-28T10:47:51.856Z,14.20
2017-12-28T10:48:51.882Z,13.30
2017-12-28T10:49:51.902Z,12.20
2017-12-28T10:50:51.935Z,14.00
2017-12-28T10:51:51.968Z,13.60
2017-12-28T10:52:52.058Z,13.30
2017-12-28T10:53:52.032Z,14.20
2017-12-28T10:54:52.069Z,11.00
2017-12-28T10:55:52.307Z,15.40
2017-12-28T10:56:52.132Z,13.80
2017-12-28T10:57:52.164Z,17.90
2017-12-28T10:58:52.191Z,14.50
2017-12-28T10:59:52.633Z,14.00
2017-12-28T11:01:52.302Z,11.90
2017-12-28T11:02:52.523Z,13.50
2017-12-28T11:03:52.353Z,10.30
2017-12-28T11:04:52.383Z,13.40
2017-12-28T11:05:52.419Z,13.90
2017-12-28T11:06:52.448Z,13.50
2017-12-28T11:07:52.698Z,15.70
2017-12-28T11:08:52.513Z,11.80
2017-12-28T11:09:52.544Z,12.50
2017-12-28T11:10:52.577Z,14.20
2017-12-28T11:11:52.636Z,16.60
2017-12-28T11:12:52.648Z,19.60
2017-12-28T11:13:52.680Z,18.00
2017-12-28T11:14:52.742Z,11.50
2017-12-28T11:15:52.736Z,13.20
2017-12-28T11:16:52.769Z,10.40
2017-12-28T11:17:52.855Z,15.70
2017-12-28T11:18:52.885Z,16.10
2017-12-28T11:19:52.863Z,14.20
2017-12-28T11:20:52.909Z,15.10
2017-12-28T11:21:52.933Z,13.00
2017-12-28T11:22:52.964Z,18.40
2017-12-28T11:23:52.994Z,13.90
2017-12-28T11:24:53.244Z,15.90
2017-12-28T11:25:53.056Z,14.00
2017-12-28T11:26:53.145Z,15.30
2017-12-28T11:27:53.119Z,12.40
2017-12-28T11:28:53.164Z,18.90
2017-12-28T11:29:53.185Z,18.90
2017-12-28T11:30:53.217Z,17.10
2017-12-28T11:31:53.459Z,16.60
2017-12-28T11:32:53.285Z,13.60
2017-12-28T11:33:53.314Z,13.60
2017-12-28T11:34:53.361Z,14.50
2017-12-28T11:35:53.388Z,16.50
2017-12-28T11:36:53.410Z,15.90
2017-12-28T11:38:53.568Z,16.10
2017-12-28T11:39:53.509Z,15.30
2017-12-28T11:40:53.597Z,15.60
2017-12-28T11:41:53.576Z,10.70
2017-12-28T11:42:53.616Z,18.00
2017-12-28T11:43:53.632Z,15.10
2017-12-28T11:44:53.681Z,15.70
2017-12-28T11:45:54.023Z,22.40
2017-12-28T11:46:53.737Z,15.20
2017-12-28T11:47:53.764Z,17.00
2017-12-28T11:48:53.797Z,18.10
2017-12-28T11:49:54.086Z,15.10
2017-12-28T11:50:53.865Z,11.70
2017-12-28T11:52:53.920Z,15.40
2017-12-28T11:53:53.951Z,13.20
2017-12-28T11:54:53.991Z,17.00
2017-12-28T11:55:54.018Z,17.50
2017-12-28T11:56:54.049Z,12.80
2017-12-28T11:57:54.181Z,11.40
2017-12-28T11:59:54.144Z,15.40
2017-12-28T12:00:54.179Z,12.80
2017-12-28T12:01:54.210Z,17.30
2017-12-28T12:02:54.241Z,17.00
2017-12-28T12:03:54.281Z,17.50
2017-12-28T12:04:54.301Z,13.60
2017-12-28T12:05:54.343Z,10.70
2017-12-28T12:06:54.394Z,15.90
2017-12-28T12:07:54.404Z,11.80
2017-12-28T12:08:54.430Z,12.80
2017-12-28T12:09:54.461Z,7.90
2017-12-28T12:10:54.499Z,13.80
2017-12-28T12:11:54.534Z,11.70
2017-12-28T12:12:54.560Z,14.30
2017-12-28T12:13:54.589Z,12.30
2017-12-28T12:14:54.694Z,18.00
2017-12-28T12:15:54.661Z,13.20
2017-12-28T12:16:54.752Z,10.10
2017-12-28T12:17:54.720Z,9.90
2017-12-28T12:18:54.761Z,14.40
2017-12-28T12:19:54.786Z,14.20
2017-12-28T12:20:54.814Z,8.80
2017-12-28T12:21:54.899Z,13.50
2017-12-28T12:22:54.881Z,9.70
2017-12-28T12:23:54.911Z,13.00
2017-12-28T12:24:55.152Z,11.10
2017-12-28T12:25:54.973Z,12.20
2017-12-28T12:26:55.210Z,10.30
2017-12-28T12:27:55.041Z,10.70
2017-12-28T12:28:55.074Z,11.80
2017-12-28T12:29:55.109Z,11.50
2017-12-28T12:30:55.343Z,12.60
2017-12-28T12:31:55.186Z,11.30
2017-12-28T12:32:55.200Z,12.50
2017-12-28T12:33:55.246Z,12.60
2017-12-28T12:34:55.265Z,15.50
2017-12-28T12:35:55.297Z,13.50
2017-12-28T12:36:55.328Z,11.50
2017-12-28T12:37:55.366Z,10.40
2017-12-28T12:38:55.423Z,15.50
2017-12-28T12:39:55.422Z,11.10
2017-12-28T12:40:55.452Z,9.70
2017-12-28T12:41:55.485Z,11.80
2017-12-28T12:42:55.533Z,8.80
2017-12-28T12:43:55.552Z,10.90
2017-12-28T12:44:55.583Z,10.60
2017-12-28T12:45:55.616Z,14.40
2017-12-28T12:46:55.650Z,11.60
2017-12-28T12:47:55.682Z,12.10
2017-12-28T12:48:55.713Z,13.70
2017-12-28T12:49:55.743Z,11.70
2017-12-28T12:50:55.797Z,13.30
2017-12-28T12:51:56.016Z,10.30
2017-12-28T12:52:55.845Z,8.40
2017-12-28T12:53:55.874Z,12.40
2017-12-28T12:54:55.903Z,10.20
2017-12-28T12:55:55.947Z,13.20
2017-12-28T12:56:55.984Z,10.50
2017-12-28T12:57:56.105Z,8.70
2017-12-28T12:58:56.249Z,12.70
2017-12-28T12:59:56.068Z,12.00
2017-12-28T13:00:56.098Z,8.60
2017-12-28T13:01:56.128Z,12.40
2017-12-28T13:02:56.165Z,16.20
2017-12-28T13:03:56.194Z,14.90
2017-12-28T13:04:56.558Z,12.80
2017-12-28T13:05:56.268Z,13.30